Time;durP1;ratioP1;P1;durP2;ratioP2;P2;SDS_P1;SDS_P2;PMS_P1;PMS_P2;Temp;Humidity;BMP_temperature;BMP_pressure;BME280_temperature;BME280_humidity;BME280_pressure;Samples;Min_cycle;Max_cycle;Signal;HPM_P1;HPM_P2
2022/03/11 00:00:45;;;;;;;14.02;8.48;;;;;;;6.59;49.69;101768.44;5043236;28;20020;-87
2022/03/11 00:03:12;;;;;;;14.82;9.00;;;;;;;6.55;49.65;101768.19;5049426;28;20259;-87
2022/03/11 00:05:42;;;;;;;14.35;8.52;;;;;;;6.51;50.38;101767.13;5046244;28;20018;-87
2022/03/11 00:08:08;;;;;;;15.10;8.88;;;;;;;6.48;50.05;101768.66;5043126;28;20283;-87
2022/03/11 00:10:33;;;;;;;16.10;9.15;;;;;;;6.44;50.19;101760.72;5046925;28;20175;-87
2022/03/11 00:12:58;;;;;;;15.52;9.00;;;;;;;6.41;50.48;101757.94;5043889;28;20089;-87
2022/03/11 00:15:24;;;;;;;15.32;8.93;;;;;;;6.38;49.93;101755.19;5042233;28;20271;-87
2022/03/11 00:17:50;;;;;;;15.88;9.20;;;;;;;6.33;50.58;101754.06;5045435;28;20210;-86
2022/03/11 00:20:19;;;;;;;15.55;9.13;;;;;;;6.32;50.59;101749.69;5047619;28;20052;-87
2022/03/11 00:22:48;;;;;;;13.93;8.20;;;;;;;6.29;50.11;101759.88;5036761;28;20059;-86
2022/03/11 00:25:14;;;;;;;;;;;;;;;6.32;50.32;101754.84;5043445;28;20023;-87
2022/03/11 00:27:40;;;;;;;14.70;8.15;;;;;;;6.26;50.64;101751.94;5048626;28;19947;-87
2022/03/11 00:30:06;;;;;;;16.13;9.15;;;;;;;6.21;50.73;101751.69;5048257;28;20021;-87
2022/03/11 00:32:32;;;;;;;14.88;8.52;;;;;;;6.20;50.52;101749.91;5048242;28;20034;-87
2022/03/11 00:34:58;;;;;;;15.07;8.93;;;;;;;6.17;50.37;101751.41;5048571;28;20220;-87
2022/03/11 00:37:23;;;;;;;16.55;9.10;;;;;;;6.15;50.72;101747.84;5050205;28;20021;-87
2022/03/11 00:39:48;;;;;;;16.27;8.77;;;;;;;6.14;51.28;101743.47;5048642;28;20030;-87
2022/03/11 00:42:14;;;;;;;16.60;9.07;;;;;;;6.12;51.27;101751.16;5048556;28;20220;-87
2022/03/11 00:44:40;;;;;;;18.77;9.32;;;;;;;6.09;50.99;101740.63;5042958;28;20032;-87
2022/03/11 00:47:06;;;;;;;16.92;9.20;;;;;;;6.09;51.28;101741.50;5044850;28;20021;-87
2022/03/11 00:49:31;;;;;;;16.52;9.32;;;;;;;6.07;51.06;101740.56;5048313;28;20020;-87
2022/03/11 00:51:57;;;;;;;16.08;8.77;;;;;;;6.08;51.15;101736.25;5045726;28;20786;-87
2022/03/11 00:54:22;;;;;;;15.68;8.98;;;;;;;6.06;51.07;101733.59;5041486;28;20044;-87
2022/03/11 00:56:48;;;;;;;18.50;9.50;;;;;;;6.04;50.99;101735.22;5053805;28;20029;-87
2022/03/11 00:59:13;;;;;;;15.75;8.98;;;;;;;6.02;50.77;101734.22;5043713;28;20045;-87
2022/03/11 01:01:38;;;;;;;17.23;9.57;;;;;;;6.00;51.01;101725.50;5043835;28;20026;-87
2022/03/11 01:04:04;;;;;;;14.70;8.98;;;;;;;6.00;51.42;101724.59;5042400;28;20017;-87
2022/03/11 01:06:29;;;;;;;15.85;9.23;;;;;;;5.99;51.41;101722.81;5047884;28;20168;-87
2022/03/11 01:08:54;;;;;;;14.48;9.05;;;;;;;5.97;51.50;101729.53;5047678;28;20175;-87
2022/03/11 01:11:19;;;;;;;15.88;9.07;;;;;;;5.96;51.36;101713.16;5038537;28;20029;-86
2022/03/11 01:13:45;;;;;;;17.35;9.35;;;;;;;5.94;51.50;101717.34;5045894;28;20226;-86
2022/03/11 01:16:10;;;;;;;15.57;9.15;;;;;;;5.92;51.30;101706.00;5042395;28;20041;-87
2022/03/11 01:18:35;;;;;;;16.50;9.57;;;;;;;5.91;51.12;101706.84;5042494;28;20283;-87
2022/03/11 01:21:01;;;;;;;16.00;9.48;;;;;;;5.89;51.64;101706.75;5043014;28;20025;-87
2022/03/11 01:23:26;;;;;;;15.68;9.43;;;;;;;5.86;51.40;101701.38;5044665;28;20015;-87
2022/03/11 01:25:51;;;;;;;15.43;9.38;;;;;;;5.85;51.38;101703.88;5043590;28;20195;-87
2022/03/11 01:28:17;;;;;;;15.93;8.90;;;;;;;5.82;51.27;101696.88;5042289;28;20140;-87
2022/03/11 01:30:42;;;;;;;15.65;8.63;;;;;;;5.80;51.62;101688.13;5042073;28;20308;-87
2022/03/11 01:33:07;;;;;;;15.80;9.05;;;;;;;5.81;51.21;101691.56;5041692;28;20029;-87
2022/03/11 01:35:33;;;;;;;17.50;9.30;;;;;;;5.78;51.46;101694.91;5048563;28;20260;-87
2022/03/11 01:37:58;;;;;;;16.35;8.90;;;;;;;5.78;51.60;101681.06;5043382;28;20024;-80
2022/03/11 01:40:25;;;;;;;18.33;9.18;;;;;;;5.74;51.69;101673.13;5048263;28;20017;-80
2022/03/11 01:42:50;;;;;;;16.17;9.00;;;;;;;5.74;51.38;101680.91;5046505;28;20059;-80
2022/03/11 01:45:16;;;;;;;17.08;9.23;;;;;;;5.72;51.62;101672.16;5055030;28;20451;-80
2022/03/11 01:47:42;;;;;;;17.70;9.32;;;;;;;5.72;51.26;101671.25;5042416;28;20128;-80
2022/03/11 01:50:07;;;;;;;15.52;9.02;;;;;;;5.71;51.68;101667.78;5048868;28;20104;-80
2022/03/11 01:52:34;;;;;;;19.45;9.98;;;;;;;5.69;51.38;101658.16;5044291;28;20088;-80
2022/03/11 01:55:00;;;;;;;16.63;8.50;;;;;;;5.68;51.58;101659.00;5042928;28;20025;-80
2022/03/11 01:57:25;;;;;;;17.63;9.00;;;;;;;5.66;51.54;101655.41;5041727;28;20018;-80
2022/03/11 01:59:50;;;;;;;17.20;9.15;;;;;;;5.64;51.70;101646.69;5042169;28;20096;-80
2022/03/11 02:02:16;;;;;;;15.80;8.85;;;;;;;5.62;51.55;101640.53;5041577;28;20021;-80
2022/03/11 02:04:42;;;;;;;16.63;8.98;;;;;;;5.61;51.72;101641.34;5047005;28;20025;-80
2022/03/11 02:07:08;;;;;;;16.30;9.18;;;;;;;5.58;51.60;101636.88;5042689;28;20068;-80
2022/03/11 02:09:33;;;;;;;16.13;8.70;;;;;;;5.56;51.50;101635.88;5046726;28;20013;-80
2022/03/11 02:11:59;;;;;;;17.08;9.68;;;;;;;5.56;51.33;101633.31;5041082;28;20017;-80
2022/03/11 02:14:24;;;;;;;17.58;9.68;;;;;;;5.56;51.81;101623.88;5044576;28;20079;-80
2022/03/11 02:16:49;;;;;;;16.38;8.98;;;;;;;5.57;51.20;101625.63;5042640;28;20025;-80
2022/03/11 02:19:14;;;;;;;16.25;8.90;;;;;;;5.56;51.69;101620.38;5044323;28;20021;-80
2022/03/11 02:21:45;;;;;;;14.98;8.82;;;;;;;5.56;50.95;101617.78;5041074;28;20192;-80
2022/03/11 02:24:11;;;;;;;17.23;9.35;;;;;;;5.58;50.97;101617.09;5045362;28;20025;-80
2022/03/11 02:26:37;;;;;;;16.33;9.60;;;;;;;5.57;50.90;101611.84;5041309;28;20050;-80
2022/03/11 02:29:03;;;;;;;16.48;9.45;;;;;;;5.59;50.77;101612.81;5044736;28;20302;-80
2022/03/11 02:31:30;;;;;;;15.35;8.88;;;;;;;5.59;51.18;101605.06;5045091;28;20013;-80
2022/03/11 02:33:57;;;;;;;17.42;9.35;;;;;;;5.58;50.40;101608.44;5046622;28;20087;-80
2022/03/11 02:36:22;;;;;;;15.40;9.20;;;;;;;5.58;51.02;101598.13;5054791;28;20213;-86
2022/03/11 02:38:48;;;;;;;17.58;9.30;;;;;;;5.57;50.90;101593.72;5047199;28;20064;-87
2022/03/11 02:41:14;;;;;;;19.23;9.50;;;;;;;5.54;51.17;101593.56;5054156;28;20027;-87
2022/03/11 02:43:42;;;;;;;15.57;9.20;;;;;;;5.53;51.47;101594.38;5047425;28;20045;-87
2022/03/11 02:46:08;;;;;;;15.40;9.15;;;;;;;5.50;50.86;101589.91;5048415;28;20080;-87
2022/03/11 02:48:34;;;;;;;18.15;9.20;;;;;;;5.50;51.28;101596.78;5050006;28;20025;-87
2022/03/11 02:50:59;;;;;;;18.35;9.82;;;;;;;5.51;50.69;101593.41;5053272;28;20070;-87
2022/03/11 02:53:25;;;;;;;17.55;9.07;;;;;;;5.49;51.09;101592.41;5041243;28;20025;-87
2022/03/11 02:55:50;;;;;;;16.02;9.30;;;;;;;5.48;50.96;101588.06;5046270;28;20214;-87
2022/03/11 02:58:15;;;;;;;17.48;9.23;;;;;;;5.47;50.38;101586.28;5048954;28;20252;-87
2022/03/11 03:00:40;;;;;;;18.15;9.88;;;;;;;5.45;50.92;101581.03;5046856;28;20037;-87
2022/03/11 03:03:06;;;;;;;17.90;9.50;;;;;;;5.47;51.54;101581.09;5044117;28;20025;-87
2022/03/11 03:05:31;;;;;;;15.77;8.82;;;;;;;5.45;50.74;101574.97;5046006;28;20020;-87
2022/03/11 03:07:57;;;;;;;17.98;8.73;;;;;;;5.43;51.72;101580.06;5045538;28;20044;-80
2022/03/11 03:10:22;;;;;;;17.20;9.20;;;;;;;5.40;50.88;101575.59;5042348;28;20022;-80
2022/03/11 03:12:48;;;;;;;15.80;8.95;;;;;;;5.39;51.46;101576.41;5049212;28;20020;-80
2022/03/11 03:15:13;;;;;;;17.67;9.25;;;;;;;5.36;51.69;101578.81;5049740;28;20260;-80
2022/03/11 03:17:39;;;;;;;15.82;8.98;;;;;;;5.33;51.50;101583.81;5027999;28;20044;-80
2022/03/11 03:20:05;;;;;;;17.63;9.68;;;;;;;5.32;51.37;101582.03;5022978;28;20227;-80
2022/03/11 03:22:31;;;;;;;15.48;8.90;;;;;;;5.29;51.23;101576.69;5025691;28;20287;-80
2022/03/11 03:24:56;;;;;;;15.10;8.93;;;;;;;5.27;51.60;101572.22;5027687;28;20021;-80
2022/03/11 03:27:21;;;;;;;16.25;9.13;;;;;;;5.26;51.36;101579.09;5028289;28;20196;-80
2022/03/11 03:29:47;;;;;;;17.08;9.82;;;;;;;5.22;51.72;101583.19;5026364;28;20260;-80
2022/03/11 03:32:12;;;;;;;18.20;9.10;;;;;;;5.22;51.19;101569.38;5024483;28;20259;-80
2022/03/11 03:34:38;;;;;;;18.33;9.30;;;;;;;5.20;51.38;101568.41;5034622;28;20095;-80
2022/03/11 03:37:08;;;;;;;18.10;9.45;;;;;;;5.17;51.31;101568.22;5025399;28;20025;-87
2022/03/11 03:39:36;;;;;;;17.63;9.23;;;;;;;5.16;51.51;101574.22;5026538;28;20018;-87
2022/03/11 03:42:02;;;;;;;15.77;9.15;;;;;;;5.14;51.92;101571.53;5030429;28;20025;-86
2022/03/11 03:44:27;;;;;;;18.23;9.48;;;;;;;5.12;51.70;101572.25;5019556;28;20029;-86
2022/03/11 03:46:53;;;;;;;17.60;9.30;;;;;;;5.11;51.44;101571.34;5032206;28;20029;-86
2022/03/11 03:49:18;;;;;;;17.58;9.13;;;;;;;5.05;51.86;101571.91;5022044;28;20017;-87
2022/03/11 03:51:44;;;;;;;19.33;9.75;;;;;;;5.03;51.69;101567.44;5027381;28;20013;-87
2022/03/11 03:54:10;;;;;;;17.00;9.82;;;;;;;5.01;52.20;101572.53;5020823;28;20022;-87
2022/03/11 03:56:36;;;;;;;17.08;9.43;;;;;;;4.99;52.00;101568.06;5027986;28;20316;-88
2022/03/11 03:59:04;;;;;;;17.25;9.05;;;;;;;4.99;52.05;101570.66;5028585;28;20025;-87
2022/03/11 04:01:34;;;;;;;18.77;9.82;;;;;;;4.98;51.46;101568.84;5022038;28;20022;-87
2022/03/11 04:03:59;;;;;;;;;;;;;;;5.03;51.62;101563.16;5028651;28;20265;-87
2022/03/11 04:06:25;;;;;;;15.63;8.43;;;;;;;4.98;51.98;101554.28;5024666;28;19919;-86
2022/03/11 04:08:50;;;;;;;16.88;9.15;;;;;;;4.98;51.73;101559.44;5017967;28;20022;-87
2022/03/11 04:11:15;;;;;;;17.23;9.30;;;;;;;4.97;51.54;101556.75;5023787;28;20013;-87
2022/03/11 04:13:41;;;;;;;17.73;9.98;;;;;;;4.93;51.78;101547.94;5023738;28;20037;-87
2022/03/11 04:16:06;;;;;;;16.77;9.57;;;;;;;4.92;51.98;101559.06;5036246;28;20024;-87
2022/03/11 04:18:32;;;;;;;18.08;9.18;;;;;;;4.92;51.41;101551.31;5054740;28;20048;-87
2022/03/11 04:20:58;;;;;;;16.30;8.82;;;;;;;4.91;51.59;101559.88;5046630;28;20037;-88
2022/03/11 04:23:23;;;;;;;18.42;8.63;;;;;;;4.91;51.90;101557.28;5044684;28;20046;-87
2022/03/11 04:25:48;;;;;;;14.70;9.07;;;;;;;4.91;51.29;101556.38;5042708;28;20017;-87
2022/03/11 04:28:14;;;;;;;18.65;8.70;;;;;;;4.90;51.58;101545.19;5047254;28;20019;-87
2022/03/11 04:30:39;;;;;;;16.05;8.38;;;;;;;4.92;51.74;101545.28;5044580;28;20013;-86
2022/03/11 04:33:04;;;;;;;19.00;9.13;;;;;;;4.92;51.66;101533.22;5042947;28;20025;-87
2022/03/11 04:35:29;;;;;;;17.88;8.88;;;;;;;4.90;51.86;101539.13;5042450;28;20021;-86
2022/03/11 04:37:55;;;;;;;17.25;9.18;;;;;;;4.88;51.87;101537.34;5044283;28;20029;-87
2022/03/11 04:40:20;;;;;;;19.05;9.35;;;;;;;4.89;52.30;101543.38;5042371;28;20036;-88
2022/03/11 04:42:45;;;;;;;17.42;8.95;;;;;;;4.87;51.21;101532.09;5043000;28;20032;-87
2022/03/11 04:45:10;;;;;;;21.55;10.93;;;;;;;4.88;51.75;101541.59;5044108;28;20132;-87
2022/03/11 04:47:36;;;;;;;15.98;8.68;;;;;;;4.86;51.57;101540.63;5043469;28;20088;-87
2022/03/11 04:50:01;;;;;;;19.23;9.13;;;;;;;4.84;51.75;101550.88;5043424;28;20275;-87
2022/03/11 04:52:27;;;;;;;17.50;8.52;;;;;;;4.83;51.90;101538.75;5039221;28;20315;-86
2022/03/11 04:54:53;;;;;;;16.50;8.27;;;;;;;4.83;51.62;101532.72;5039326;28;20021;-87
2022/03/11 04:57:18;;;;;;;16.48;8.25;;;;;;;4.82;51.55;101534.41;5034160;28;20063;-87
2022/03/11 04:59:44;;;;;;;16.38;8.75;;;;;;;4.82;51.78;101549.91;5042689;28;20025;-87
2022/03/11 05:02:09;;;;;;;14.95;8.52;;;;;;;4.79;52.11;101536.78;5042967;28;20059;-87
2022/03/11 05:04:34;;;;;;;16.15;8.50;;;;;;;4.77;52.31;101543.56;5046170;28;20049;-87
2022/03/11 05:07:00;;;;;;;17.20;8.73;;;;;;;4.76;51.98;101538.31;5050648;28;20035;-80
2022/03/11 05:09:25;;;;;;;18.52;9.18;;;;;;;4.75;52.03;101536.53;5049798;28;20059;-80
2022/03/11 05:11:50;;;;;;;15.82;8.95;;;;;;;4.75;51.72;101541.69;5045077;28;20094;-80
2022/03/11 05:14:15;;;;;;;18.17;8.57;;;;;;;4.74;52.13;101534.78;5042471;28;20013;-80
2022/03/11 05:16:41;;;;;;;16.23;8.60;;;;;;;4.74;52.02;101532.19;5047034;28;20052;-80
2022/03/11 05:19:06;;;;;;;18.25;8.93;;;;;;;4.73;52.14;101533.88;5042421;28;20048;-80
2022/03/11 05:21:31;;;;;;;18.88;9.68;;;;;;;4.75;51.99;101539.13;5043141;28;20017;-80
2022/03/11 05:23:57;;;;;;;19.67;9.30;;;;;;;4.72;51.93;101532.06;5046827;28;20017;-80
2022/03/11 05:26:25;;;;;;;17.45;9.00;;;;;;;4.73;51.63;101535.56;5056373;28;20285;-80
2022/03/11 05:28:55;;;;;;;17.92;8.85;;;;;;;4.73;51.98;101531.28;5041134;28;20039;-80
2022/03/11 05:31:21;;;;;;;17.38;8.60;;;;;;;4.73;51.78;101526.13;5044280;28;21205;-80
2022/03/11 05:33:48;;;;;;;17.10;8.63;;;;;;;4.72;52.11;101529.50;5044465;28;20087;-79
2022/03/11 05:36:13;;;;;;;15.15;8.00;;;;;;;4.71;52.65;101527.72;5042118;28;20056;-80
2022/03/11 05:38:39;;;;;;;16.40;9.05;;;;;;;4.69;52.41;101521.56;5045696;28;20021;-80
2022/03/11 05:41:04;;;;;;;16.15;8.23;;;;;;;4.68;52.48;101522.41;5043096;28;20032;-80
2022/03/11 05:43:29;;;;;;;17.25;8.88;;;;;;;4.68;52.25;101518.13;5047095;28;20171;-80
2022/03/11 05:45:55;;;;;;;18.02;9.02;;;;;;;4.70;51.91;101526.81;5040767;28;20034;-80
2022/03/11 05:48:20;;;;;;;18.23;9.05;;;;;;;4.73;51.77;101522.66;5041397;28;20100;-80
2022/03/11 05:50:45;;;;;;;17.88;9.00;;;;;;;4.76;52.22;101515.09;5042748;28;20203;-80
2022/03/11 05:53:11;;;;;;;19.48;8.88;;;;;;;4.77;51.95;101514.28;5040999;28;20183;-80
2022/03/11 05:55:36;;;;;;;18.17;9.13;;;;;;;4.75;52.04;101521.03;5041784;28;20190;-80
2022/03/11 05:58:01;;;;;;;18.77;8.50;;;;;;;4.76;52.37;101517.66;5042387;28;20018;-80
2022/03/11 06:00:27;;;;;;;21.80;9.30;;;;;;;4.76;51.69;101517.66;5042931;28;20068;-80
2022/03/11 06:02:52;;;;;;;17.23;8.52;;;;;;;4.78;51.98;101513.47;5042907;28;20029;-80
2022/03/11 06:05:17;;;;;;;17.35;9.10;;;;;;;4.79;52.26;101510.97;5047239;28;20041;-80
2022/03/11 06:07:43;;;;;;;18.70;9.48;;;;;;;4.80;52.12;101507.59;5052756;28;20017;-87
2022/03/11 06:10:08;;;;;;;18.02;9.30;;;;;;;4.79;52.57;101507.50;5050245;28;20017;-88
2022/03/11 06:12:34;;;;;;;20.15;9.73;;;;;;;4.79;52.30;101510.09;5049266;28;20167;-87
2022/03/11 06:14:59;;;;;;;20.10;9.43;;;;;;;4.78;51.95;101508.31;5049172;28;20247;-87
2022/03/11 06:17:25;;;;;;;22.30;9.40;;;;;;;4.80;52.74;101512.75;5048295;28;20029;-87
2022/03/11 06:19:50;;;;;;;22.35;10.20;;;;;;;4.80;52.48;101509.31;5047747;28;20043;-88
2022/03/11 06:22:16;;;;;;;20.30;9.38;;;;;;;4.80;52.67;101512.75;5051603;28;20036;-87
2022/03/11 06:24:42;;;;;;;18.40;8.85;;;;;;;4.81;52.63;101513.69;5046592;28;20208;-87
2022/03/11 06:27:07;;;;;;;18.52;9.68;;;;;;;4.82;53.13;101520.59;5047243;28;20199;-87
2022/03/11 06:29:32;;;;;;;19.25;9.30;;;;;;;4.83;52.75;101522.38;5046460;28;20021;-87
2022/03/11 06:31:58;;;;;;;23.70;10.65;;;;;;;4.86;52.84;101517.41;5045875;28;20033;-87
2022/03/11 06:34:24;;;;;;;18.67;9.23;;;;;;;4.87;53.17;101519.19;5051244;28;20021;-87
2022/03/11 06:36:50;;;;;;;19.25;9.73;;;;;;;4.90;52.98;101519.34;5053032;28;20108;-87
2022/03/11 06:39:15;;;;;;;23.08;9.93;;;;;;;4.90;53.03;101519.34;5050427;28;20165;-87
2022/03/11 06:41:41;;;;;;;21.42;9.98;;;;;;;4.90;53.70;101513.31;5045604;28;20033;-87
2022/03/11 06:44:07;;;;;;;20.73;9.85;;;;;;;4.92;52.71;101512.56;5050512;28;20017;-87
2022/03/11 06:46:32;;;;;;;20.08;9.95;;;;;;;4.95;53.24;101517.91;5049921;28;20219;-87
2022/03/11 06:48:57;;;;;;;18.95;9.77;;;;;;;5.00;53.11;101520.78;5046332;28;20326;-87
2022/03/11 06:51:23;;;;;;;20.00;10.23;;;;;;;5.03;53.23;101511.50;5048125;28;20040;-87
2022/03/11 06:53:48;;;;;;;18.80;9.32;;;;;;;5.08;53.28;101518.63;5043848;28;20010;-87
2022/03/11 06:56:14;;;;;;;22.88;10.52;;;;;;;5.11;53.05;101521.38;5044818;28;20032;-87
2022/03/11 06:58:39;;;;;;;21.83;10.13;;;;;;;5.17;52.79;101524.28;5046622;28;20167;-87
2022/03/11 07:01:04;;;;;;;22.92;11.10;;;;;;;5.26;53.08;101522.25;5041118;28;20560;-87
2022/03/11 07:03:30;;;;;;;21.83;10.57;;;;;;;5.38;52.87;101522.91;5045081;28;20017;-87
2022/03/11 07:05:56;;;;;;;20.38;10.57;;;;;;;5.44;52.68;101506.88;5049795;28;20025;-87
2022/03/11 07:08:21;;;;;;;21.05;10.70;;;;;;;5.49;52.39;101509.69;5046889;28;20021;-80
2022/03/11 07:10:46;;;;;;;20.60;10.48;;;;;;;5.56;52.24;101504.06;5045128;28;20026;-81
2022/03/11 07:13:11;;;;;;;22.05;10.50;;;;;;;5.59;52.22;101501.66;5045882;28;20021;-80
2022/03/11 07:15:37;;;;;;;20.38;10.75;;;;;;;5.69;52.01;101501.34;5052530;28;20037;-80
2022/03/11 07:18:02;;;;;;;24.92;11.45;;;;;;;5.82;51.26;101496.81;5044564;28;20291;-80
2022/03/11 07:20:27;;;;;;;21.45;10.27;;;;;;;5.84;51.64;101500.41;5047266;28;20096;-80
2022/03/11 07:22:52;;;;;;;24.88;10.77;;;;;;;5.93;50.90;101503.47;5051644;28;20037;-80
2022/03/11 07:25:18;;;;;;;23.45;11.27;;;;;;;6.09;50.85;101493.13;5046793;28;20264;-80
2022/03/11 07:27:45;;;;;;;21.98;11.20;;;;;;;6.21;51.11;101502.34;5045804;28;20029;-80
2022/03/11 07:30:11;;;;;;;22.80;11.50;;;;;;;6.20;51.26;101500.56;5053086;28;20028;-80
2022/03/11 07:32:38;;;;;;;21.17;10.98;;;;;;;6.18;51.10;101508.25;5049716;28;20017;-80
2022/03/11 07:35:03;;;;;;;22.00;11.63;;;;;;;6.33;50.92;101503.00;5044884;28;20256;-80
2022/03/11 07:37:29;;;;;;;24.55;11.38;;;;;;;6.57;50.85;101486.94;5049604;28;20018;-87
2022/03/11 07:39:54;;;;;;;26.23;11.88;;;;;;;6.91;49.50;101494.66;5045105;28;20052;-87
2022/03/11 07:42:19;;;;;;;23.80;11.38;;;;;;;7.20;48.34;101490.00;5044709;28;20203;-87
2022/03/11 07:44:45;;;;;;;23.73;11.70;;;;;;;7.24;48.17;101498.81;5043634;28;20030;-87
2022/03/11 07:47:10;;;;;;;24.77;12.00;;;;;;;7.22;47.98;101490.09;5045062;28;20248;-86
2022/03/11 07:49:35;;;;;;;25.08;12.50;;;;;;;7.13;49.30;101504.38;5050091;28;20025;-87
2022/03/11 07:52:02;;;;;;;29.38;12.48;;;;;;;7.09;49.06;101492.06;5047541;28;20038;-87
2022/03/11 07:54:28;;;;;;;26.95;13.48;;;;;;;7.11;49.65;101490.47;5040232;28;20251;-88
2022/03/11 07:56:53;;;;;;;23.55;12.27;;;;;;;7.42;48.48;101491.03;5046564;28;20063;-87
2022/03/11 07:59:18;;;;;;;26.33;13.13;;;;;;;7.95;47.93;101486.50;5042561;28;20045;-87
2022/03/11 08:01:44;;;;;;;27.45;12.70;;;;;;;8.69;45.30;101485.41;5044884;28;20048;-87
2022/03/11 08:04:13;;;;;;;25.35;12.68;;;;;;;9.39;43.75;101490.78;5035344;28;20013;-89
2022/03/11 08:06:38;;;;;;;28.60;12.35;;;;;;;10.00;42.10;101475.69;5036430;28;20039;-85
2022/03/11 08:09:03;;;;;;;24.55;13.18;;;;;;;10.13;41.40;101469.22;5040251;28;20172;-87
2022/03/11 08:11:29;;;;;;;26.20;13.73;;;;;;;9.75;42.44;101470.47;5045426;28;20258;-85
2022/03/11 08:13:54;;;;;;;26.80;12.98;;;;;;;9.23;44.09;101473.69;5043905;28;20017;-86
2022/03/11 08:16:20;;;;;;;28.42;14.13;;;;;;;8.77;45.74;101472.72;5048607;28;20331;-86
2022/03/11 08:18:46;;;;;;;28.20;13.52;;;;;;;8.37;46.55;101465.81;5046743;28;20045;-86
2022/03/11 08:21:12;;;;;;;30.60;13.32;;;;;;;8.08;46.90;101467.16;5048917;28;20025;-86
2022/03/11 08:23:39;;;;;;;29.02;13.07;;;;;;;7.87;46.81;101461.94;5038072;28;20093;-86
2022/03/11 08:26:04;;;;;;;29.40;13.88;;;;;;;7.74;47.11;101466.56;5044055;28;20013;-86
2022/03/11 08:28:29;;;;;;;28.13;14.13;;;;;;;7.68;48.94;101475.78;5047734;28;20283;-85
2022/03/11 08:30:55;;;;;;;26.58;13.90;;;;;;;7.63;48.72;101466.09;5038556;28;20093;-86
2022/03/11 08:33:22;;;;;;;28.60;14.27;;;;;;;7.64;48.16;101461.78;5050608;28;20037;-86
2022/03/11 08:35:49;;;;;;;35.58;14.65;;;;;;;7.65;48.48;101459.25;5041160;28;20056;-86
2022/03/11 08:38:15;;;;;;;25.85;13.95;;;;;;;7.68;49.54;101468.00;5032344;28;20025;-78
2022/03/11 08:40:41;;;;;;;33.05;14.40;;;;;;;7.73;49.50;101466.50;5039524;28;20045;-78
2022/03/11 08:43:06;;;;;;;26.77;14.60;;;;;;;7.75;48.49;101463.16;5041315;28;20059;-78
2022/03/11 08:45:32;;;;;;;28.38;14.27;;;;;;;7.81;49.89;101458.22;5038908;28;20018;-78
2022/03/11 08:47:58;;;;;;;30.33;14.82;;;;;;;7.85;48.68;101459.28;5035837;28;20085;-78
2022/03/11 08:50:23;;;;;;;31.17;15.38;;;;;;;7.89;48.66;101455.09;5038957;28;20037;-79
2022/03/11 08:52:49;;;;;;;29.40;14.52;;;;;;;7.92;48.63;101458.72;5049196;28;20302;-79
2022/03/11 08:55:15;;;;;;;31.83;15.30;;;;;;;7.97;48.84;101457.19;5030511;28;20077;-79
2022/03/11 08:57:46;;;;;;;31.48;15.27;;;;;;;8.02;47.89;101454.81;5033503;28;20045;-79
2022/03/11 09:00:14;;;;;;;29.95;15.85;;;;;;;8.09;49.22;101458.56;5028187;28;20030;-79
2022/03/11 09:02:39;;;;;;;32.70;15.40;;;;;;;8.14;48.79;101452.75;5027881;28;20017;-79
2022/03/11 09:05:06;;;;;;;31.73;16.52;;;;;;;8.19;49.29;101446.03;5040498;28;20044;-79
2022/03/11 09:07:32;;;;;;;33.92;16.55;;;;;;;8.26;48.21;101444.59;5033386;28;21166;-86
2022/03/11 09:09:58;;;;;;;32.78;15.95;;;;;;;8.33;49.56;101438.84;5032819;28;20047;-86
2022/03/11 09:12:23;;;;;;;34.83;16.08;;;;;;;8.39;48.26;101443.41;5038403;28;20080;-86
2022/03/11 09:14:49;;;;;;;34.42;16.63;;;;;;;8.47;48.49;101431.69;5037377;28;20268;-86
2022/03/11 09:17:14;;;;;;;33.88;16.45;;;;;;;8.58;49.82;101441.63;5046485;28;20049;-86
2022/03/11 09:19:42;;;;;;;33.65;16.35;;;;;;;8.65;48.83;101438.47;5040379;28;20028;-86
2022/03/11 09:22:07;;;;;;;33.85;16.38;;;;;;;8.72;48.33;101436.97;5041078;28;20041;-86
2022/03/11 09:24:33;;;;;;;34.33;16.75;;;;;;;8.79;49.25;101424.31;5036984;28;20326;-86
2022/03/11 09:26:58;;;;;;;33.80;16.00;;;;;;;8.87;49.31;101433.28;5047898;28;20163;-86
2022/03/11 09:29:25;;;;;;;36.35;17.00;;;;;;;8.98;48.78;101427.63;5040132;28;20032;-86
2022/03/11 09:31:50;;;;;;;37.47;17.08;;;;;;;9.04;49.48;101420.97;5038958;28;20037;-86
2022/03/11 09:34:15;;;;;;;34.13;16.63;;;;;;;9.12;47.99;101425.56;5047112;28;20020;-86
2022/03/11 09:36:42;;;;;;;33.05;16.80;;;;;;;9.20;49.20;101419.84;5035743;28;20088;-85
2022/03/11 09:39:07;;;;;;;34.35;16.90;;;;;;;9.30;48.90;101423.69;5037004;28;20029;-85
2022/03/11 09:41:33;;;;;;;33.60;17.02;;;;;;;9.37;48.19;101424.78;5040826;28;20283;-86
2022/03/11 09:43:58;;;;;;;35.78;17.83;;;;;;;9.46;48.38;101416.44;5042757;28;20016;-86
2022/03/11 09:46:25;;;;;;;35.58;17.17;;;;;;;9.56;48.45;101402.97;5033400;28;20013;-87
2022/03/11 09:48:51;;;;;;;36.00;16.70;;;;;;;9.64;48.61;101404.13;5046852;28;20087;-85
2022/03/11 09:51:17;;;;;;;35.00;16.10;;;;;;;9.71;49.12;101392.22;5052648;28;20013;-86
2022/03/11 09:53:42;;;;;;;33.03;17.38;;;;;;;9.81;49.02;101389.13;5045811;28;20028;-86
2022/03/11 09:56:08;;;;;;;35.03;17.52;;;;;;;9.91;48.01;101388.63;5043187;28;20039;-86
2022/03/11 09:58:34;;;;;;;32.80;16.45;;;;;;;9.95;48.00;101379.22;5045232;28;20017;-86
2022/03/11 10:00:59;;;;;;;38.40;17.50;;;;;;;10.03;47.27;101374.25;5047947;28;20025;-86
2022/03/11 10:03:25;;;;;;;36.08;16.58;;;;;;;10.11;48.00;101372.81;5043273;28;20088;-85
2022/03/11 10:05:53;;;;;;;37.20;17.42;;;;;;;10.22;47.96;101378.38;5056380;28;20021;-86
2022/03/11 10:08:38;;;;;;;35.28;16.48;;;;;;;10.32;49.21;101377.84;5045469;28;20025;-86
2022/03/11 10:11:22;;;;;;;36.13;17.52;;;;;;;10.47;48.08;101368.78;5039025;28;20249;-86
2022/03/11 10:13:48;;;;;;;33.83;16.55;;;;;;;10.54;48.03;101366.44;5031789;28;20374;-86
2022/03/11 10:16:22;;;;;;;34.35;16.42;;;;;;;10.64;47.03;101372.81;5050633;28;20211;-78
2022/03/11 10:18:58;;;;;;;35.45;17.10;;;;;;;10.73;47.84;101367.00;5050825;28;20070;-79
2022/03/11 10:21:31;;;;;;;33.13;17.13;;;;;;;10.81;46.47;101364.66;5041832;28;20028;-79
2022/03/11 10:23:57;;;;;;;33.88;16.40;;;;;;;10.89;48.23;101356.25;5051549;28;20026;-79
2022/03/11 10:26:34;;;;;;;33.58;16.55;;;;;;;10.96;47.63;101359.91;5044905;28;20341;-78
2022/03/11 10:29:01;;;;;;;34.47;16.23;;;;;;;11.04;47.76;101357.53;5043551;28;20168;-78
2022/03/11 10:31:46;;;;;;;33.65;17.15;;;;;;;11.13;46.85;101357.81;5043621;28;20032;-79
2022/03/11 10:34:16;;;;;;;35.35;17.20;;;;;;;11.19;46.41;101357.09;5057042;28;20044;-78
2022/03/11 10:36:59;;;;;;;35.38;15.98;;;;;;;11.22;46.37;101347.63;5056655;28;20191;-78
2022/03/11 10:39:29;;;;;;;31.95;15.88;;;;;;;11.29;46.54;101336.53;5052107;28;20084;-78
2022/03/11 10:41:58;;;;;;;33.08;16.77;;;;;;;11.41;46.50;101348.16;5046161;28;20025;-78
2022/03/11 10:44:26;;;;;;;32.65;16.90;;;;;;;11.48;46.55;101337.97;5049909;28;20020;-78
2022/03/11 10:46:56;;;;;;;33.58;16.33;;;;;;;11.54;45.92;101328.50;5048401;28;20034;-78
2022/03/11 10:49:26;;;;;;;36.92;18.63;;;;;;;11.56;45.40;101330.31;5047716;28;20089;-79
2022/03/11 10:51:53;;;;;;;34.53;17.60;;;;;;;11.62;46.06;101327.00;5035983;28;20076;-78
2022/03/11 10:54:18;;;;;;;34.60;17.75;;;;;;;11.67;45.84;101330.59;5054846;28;20013;-79
2022/03/11 10:56:44;;;;;;;35.25;17.42;;;;;;;11.71;45.29;101323.75;5046246;28;20279;-79
2022/03/11 10:59:22;;;;;;;33.60;17.30;;;;;;;11.77;45.49;101327.41;5056393;28;20021;-78
2022/03/11 11:01:51;;;;;;;32.28;17.30;;;;;;;11.84;45.87;101318.00;5045851;28;20033;-78
2022/03/11 11:04:17;;;;;;;35.38;16.85;;;;;;;11.88;45.73;101313.75;5063219;28;20028;-78
2022/03/11 11:06:44;;;;;;;33.45;17.40;;;;;;;11.94;46.16;101306.09;5047009;28;20283;-79
2022/03/11 11:09:12;;;;;;;34.72;18.48;;;;;;;12.00;45.90;101309.75;5045670;28;20426;-79
2022/03/11 11:11:39;;;;;;;33.72;17.65;;;;;;;12.06;45.24;101306.41;5043667;28;20017;-78
2022/03/11 11:14:07;;;;;;;38.78;18.58;;;;;;;12.10;45.34;101312.59;5040867;28;20029;-78
2022/03/11 11:16:44;;;;;;;34.27;17.93;;;;;;;12.20;45.06;101314.59;5045337;28;20037;-78